sensor_id;sensor_type;location;lat;lon;timestamp;P1;durP1;ratioP1;P2;durP2;ratioP2
73793;SDS011;62123;52.518;10.528;2022-11-02T00:00:40;4.80;;;1.48;;
73793;SDS011;62123;52.518;10.528;2022-11-02T00:03:06;5.73;;;1.23;;
73793;SDS011;62123;52.518;10.528;2022-11-02T00:05:32;4.07;;;1.60;;
73793;SDS011;62123;52.518;10.528;2022-11-02T00:07:57;5.30;;;1.63;;
73793;SDS011;62123;52.518;10.528;2022-11-02T00:10:23;5.45;;;1.63;;
73793;SDS011;62123;52.518;10.528;2022-11-02T00:12:49;3.93;;;1.47;;
73793;SDS011;62123;52.518;10.528;2022-11-02T00:15:15;4.00;;;1.52;;
73793;SDS011;62123;52.518;10.528;2022-11-02T00:17:41;3.60;;;1.40;;
73793;SDS011;62123;52.518;10.528;2022-11-02T00:20:09;4.90;;;1.47;;
73793;SDS011;62123;52.518;10.528;2022-11-02T00:22:37;4.10;;;1.90;;
73793;SDS011;62123;52.518;10.528;2022-11-02T00:25:03;4.70;;;1.90;;
73793;SDS011;62123;52.518;10.528;2022-11-02T00:27:30;4.75;;;1.85;;
73793;SDS011;62123;52.518;10.528;2022-11-02T00:30:00;3.63;;;1.50;;
73793;SDS011;62123;52.518;10.528;2022-11-02T00:32:26;4.18;;;1.60;;
73793;SDS011;62123;52.518;10.528;2022-11-02T00:34:51;3.90;;;1.50;;
73793;SDS011;62123;52.518;10.528;2022-11-02T00:37:17;4.15;;;1.80;;
73793;SDS011;62123;52.518;10.528;2022-11-02T00:39:43;4.30;;;1.73;;
73793;SDS011;62123;52.518;10.528;2022-11-02T00:42:08;4.70;;;1.40;;
73793;SDS011;62123;52.518;10.528;2022-11-02T00:44:34;4.00;;;1.70;;
73793;SDS011;62123;52.518;10.528;2022-11-02T00:46:59;4.73;;;2.03;;
73793;SDS011;62123;52.518;10.528;2022-11-02T00:49:25;3.70;;;1.60;;
73793;SDS011;62123;52.518;10.528;2022-11-02T00:51:50;4.87;;;1.47;;
73793;SDS011;62123;52.518;10.528;2022-11-02T00:54:16;3.00;;;1.40;;
73793;SDS011;62123;52.518;10.528;2022-11-02T00:56:41;6.60;;;1.70;;
73793;SDS011;62123;52.518;10.528;2022-11-02T00:59:10;3.80;;;1.40;;
73793;SDS011;62123;52.518;10.528;2022-11-02T01:01:35;3.43;;;1.60;;
73793;SDS011;62123;52.518;10.528;2022-11-02T01:04:01;4.07;;;1.80;;
73793;SDS011;62123;52.518;10.528;2022-11-02T01:06:26;3.90;;;1.48;;
73793;SDS011;62123;52.518;10.528;2022-11-02T01:08:52;3.47;;;1.13;;
73793;SDS011;62123;52.518;10.528;2022-11-02T01:11:19;3.15;;;1.20;;
73793;SDS011;62123;52.518;10.528;2022-11-02T01:13:45;4.00;;;1.70;;
73793;SDS011;62123;52.518;10.528;2022-11-02T01:16:11;3.65;;;1.35;;
73793;SDS011;62123;52.518;10.528;2022-11-02T01:18:38;4.03;;;1.75;;
73793;SDS011;62123;52.518;10.528;2022-11-02T01:21:04;4.17;;;1.90;;
73793;SDS011;62123;52.518;10.528;2022-11-02T01:23:30;4.78;;;1.60;;
73793;SDS011;62123;52.518;10.528;2022-11-02T01:25:57;3.58;;;1.40;;
73793;SDS011;62123;52.518;10.528;2022-11-02T01:28:23;4.03;;;1.40;;
73793;SDS011;62123;52.518;10.528;2022-11-02T01:30:48;3.60;;;1.40;;
73793;SDS011;62123;52.518;10.528;2022-11-02T01:33:14;4.43;;;1.27;;
73793;SDS011;62123;52.518;10.528;2022-11-02T01:35:39;3.67;;;1.80;;
73793;SDS011;62123;52.518;10.528;2022-11-02T01:38:05;4.70;;;1.07;;
73793;SDS011;62123;52.518;10.528;2022-11-02T01:40:34;3.97;;;1.60;;
73793;SDS011;62123;52.518;10.528;2022-11-02T01:45:52;4.10;;;1.80;;
73793;SDS011;62123;52.518;10.528;2022-11-02T01:48:21;3.60;;;1.87;;
73793;SDS011;62123;52.518;10.528;2022-11-02T01:50:52;4.13;;;1.20;;
73793;SDS011;62123;52.518;10.528;2022-11-02T01:53:18;4.47;;;1.48;;
73793;SDS011;62123;52.518;10.528;2022-11-02T01:55:43;4.47;;;1.53;;
73793;SDS011;62123;52.518;10.528;2022-11-02T01:58:09;3.53;;;1.52;;
73793;SDS011;62123;52.518;10.528;2022-11-02T02:00:36;5.63;;;1.45;;
73793;SDS011;62123;52.518;10.528;2022-11-02T02:05:37;3.25;;;1.20;;
73793;SDS011;62123;52.518;10.528;2022-11-02T02:08:05;4.88;;;1.80;;
73793;SDS011;62123;52.518;10.528;2022-11-02T02:10:32;4.30;;;1.23;;
73793;SDS011;62123;52.518;10.528;2022-11-02T02:12:59;3.15;;;1.45;;
73793;SDS011;62123;52.518;10.528;2022-11-02T02:15:26;3.50;;;1.37;;
73793;SDS011;62123;52.518;10.528;2022-11-02T02:17:58;4.28;;;2.10;;
73793;SDS011;62123;52.518;10.528;2022-11-02T02:33:33;4.15;;;1.20;;
73793;SDS011;62123;52.518;10.528;2022-11-02T02:36:14;3.40;;;1.80;;
73793;SDS011;62123;52.518;10.528;2022-11-02T02:41:18;3.50;;;1.00;;
73793;SDS011;62123;52.518;10.528;2022-11-02T02:43:50;3.57;;;1.40;;
73793;SDS011;62123;52.518;10.528;2022-11-02T02:46:19;3.83;;;1.63;;
73793;SDS011;62123;52.518;10.528;2022-11-02T02:48:47;3.72;;;1.50;;
73793;SDS011;62123;52.518;10.528;2022-11-02T02:51:18;4.55;;;1.77;;
73793;SDS011;62123;52.518;10.528;2022-11-02T02:53:47;4.10;;;1.90;;
73793;SDS011;62123;52.518;10.528;2022-11-02T02:56:18;3.08;;;1.27;;
73793;SDS011;62123;52.518;10.528;2022-11-02T03:01:21;3.23;;;1.10;;
73793;SDS011;62123;52.518;10.528;2022-11-02T03:03:49;3.03;;;1.30;;
73793;SDS011;62123;52.518;10.528;2022-11-02T03:17:17;3.93;;;1.50;;
73793;SDS011;62123;52.518;10.528;2022-11-02T03:19:49;3.07;;;1.07;;
73793;SDS011;62123;52.518;10.528;2022-11-02T03:28:08;2.90;;;1.20;;
73793;SDS011;62123;52.518;10.528;2022-11-02T03:30:46;3.72;;;1.33;;
73793;SDS011;62123;52.518;10.528;2022-11-02T03:33:25;5.03;;;1.40;;
73793;SDS011;62123;52.518;10.528;2022-11-02T03:35:55;2.90;;;1.20;;
73793;SDS011;62123;52.518;10.528;2022-11-02T03:38:31;2.90;;;1.20;;
73793;SDS011;62123;52.518;10.528;2022-11-02T03:40:59;3.00;;;0.90;;
73793;SDS011;62123;52.518;10.528;2022-11-02T03:43:25;2.83;;;0.80;;
73793;SDS011;62123;52.518;10.528;2022-11-02T03:45:52;3.20;;;1.27;;
73793;SDS011;62123;52.518;10.528;2022-11-02T03:48:19;2.70;;;1.10;;
73793;SDS011;62123;52.518;10.528;2022-11-02T03:50:47;3.35;;;1.65;;
73793;SDS011;62123;52.518;10.528;2022-11-02T03:53:25;4.55;;;1.55;;
73793;SDS011;62123;52.518;10.528;2022-11-02T03:56:30;3.50;;;1.50;;
73793;SDS011;62123;52.518;10.528;2022-11-02T03:58:59;3.90;;;1.48;;
73793;SDS011;62123;52.518;10.528;2022-11-02T04:01:25;3.43;;;1.20;;
73793;SDS011;62123;52.518;10.528;2022-11-02T04:03:51;3.38;;;0.95;;
73793;SDS011;62123;52.518;10.528;2022-11-02T04:06:17;4.07;;;0.97;;
73793;SDS011;62123;52.518;10.528;2022-11-02T04:08:43;4.70;;;1.08;;
73793;SDS011;62123;52.518;10.528;2022-11-02T04:11:10;4.27;;;1.00;;
73793;SDS011;62123;52.518;10.528;2022-11-02T04:13:55;2.95;;;0.93;;
73793;SDS011;62123;52.518;10.528;2022-11-02T04:16:39;2.72;;;1.10;;
73793;SDS011;62123;52.518;10.528;2022-11-02T04:19:04;3.97;;;1.20;;
73793;SDS011;62123;52.518;10.528;2022-11-02T04:21:48;3.88;;;0.70;;
73793;SDS011;62123;52.518;10.528;2022-11-02T04:24:33;2.90;;;1.10;;
73793;SDS011;62123;52.518;10.528;2022-11-02T04:27:17;3.63;;;1.15;;
73793;SDS011;62123;52.518;10.528;2022-11-02T04:29:42;3.37;;;1.40;;
73793;SDS011;62123;52.518;10.528;2022-11-02T04:32:08;3.20;;;0.97;;
73793;SDS011;62123;52.518;10.528;2022-11-02T04:34:34;3.38;;;1.00;;
73793;SDS011;62123;52.518;10.528;2022-11-02T04:37:00;3.60;;;1.17;;
73793;SDS011;62123;52.518;10.528;2022-11-02T04:39:26;5.20;;;1.20;;
73793;SDS011;62123;52.518;10.528;2022-11-02T04:41:51;2.80;;;0.90;;
73793;SDS011;62123;52.518;10.528;2022-11-02T04:44:17;3.33;;;1.10;;
73793;SDS011;62123;52.518;10.528;2022-11-02T04:46:43;5.10;;;1.20;;
73793;SDS011;62123;52.518;10.528;2022-11-02T04:49:09;3.80;;;1.03;;
73793;SDS011;62123;52.518;10.528;2022-11-02T04:51:35;4.85;;;0.82;;
73793;SDS011;62123;52.518;10.528;2022-11-02T04:54:04;7.30;;;0.82;;
73793;SDS011;62123;52.518;10.528;2022-11-02T04:56:30;4.80;;;1.40;;
73793;SDS011;62123;52.518;10.528;2022-11-02T04:58:56;4.30;;;0.65;;
73793;SDS011;62123;52.518;10.528;2022-11-02T05:01:24;4.93;;;1.13;;
73793;SDS011;62123;52.518;10.528;2022-11-02T05:03:52;4.17;;;0.70;;
73793;SDS011;62123;52.518;10.528;2022-11-02T05:06:19;2.80;;;0.85;;
73793;SDS011;62123;52.518;10.528;2022-11-02T05:08:45;6.05;;;0.98;;
73793;SDS011;62123;52.518;10.528;2022-11-02T05:11:11;6.00;;;1.50;;
73793;SDS011;62123;52.518;10.528;2022-11-02T05:13:37;5.43;;;1.30;;
73793;SDS011;62123;52.518;10.528;2022-11-02T05:16:04;5.57;;;0.95;;
73793;SDS011;62123;52.518;10.528;2022-11-02T05:18:30;3.90;;;0.93;;
73793;SDS011;62123;52.518;10.528;2022-11-02T05:20:56;4.40;;;1.00;;
73793;SDS011;62123;52.518;10.528;2022-11-02T05:23:23;4.28;;;1.45;;
73793;SDS011;62123;52.518;10.528;2022-11-02T05:25:53;5.20;;;1.27;;
73793;SDS011;62123;52.518;10.528;2022-11-02T05:28:20;5.55;;;1.33;;
73793;SDS011;62123;52.518;10.528;2022-11-02T05:30:45;5.72;;;0.85;;
73793;SDS011;62123;52.518;10.528;2022-11-02T05:33:11;6.47;;;1.43;;
73793;SDS011;62123;52.518;10.528;2022-11-02T05:35:36;7.57;;;1.27;;
73793;SDS011;62123;52.518;10.528;2022-11-02T05:38:02;4.82;;;1.20;;
73793;SDS011;62123;52.518;10.528;2022-11-02T05:40:28;6.70;;;1.10;;
73793;SDS011;62123;52.518;10.528;2022-11-02T05:43:00;7.10;;;1.20;;
73793;SDS011;62123;52.518;10.528;2022-11-02T05:45:25;4.33;;;1.40;;
73793;SDS011;62123;52.518;10.528;2022-11-02T05:47:51;5.30;;;1.17;;
73793;SDS011;62123;52.518;10.528;2022-11-02T05:50:17;5.73;;;1.20;;
73793;SDS011;62123;52.518;10.528;2022-11-02T05:52:44;7.33;;;1.30;;
73793;SDS011;62123;52.518;10.528;2022-11-02T05:55:09;5.47;;;1.65;;
73793;SDS011;62123;52.518;10.528;2022-11-02T05:57:35;6.23;;;1.53;;
73793;SDS011;62123;52.518;10.528;2022-11-02T06:00:02;7.88;;;1.70;;
73793;SDS011;62123;52.518;10.528;2022-11-02T06:02:29;8.25;;;1.52;;
73793;SDS011;62123;52.518;10.528;2022-11-02T06:04:55;9.10;;;1.53;;
73793;SDS011;62123;52.518;10.528;2022-11-02T06:07:20;7.72;;;1.48;;
73793;SDS011;62123;52.518;10.528;2022-11-02T06:09:46;6.33;;;1.20;;
73793;SDS011;62123;52.518;10.528;2022-11-02T06:12:11;9.50;;;0.90;;
73793;SDS011;62123;52.518;10.528;2022-11-02T06:14:37;8.88;;;1.55;;
73793;SDS011;62123;52.518;10.528;2022-11-02T06:17:02;8.57;;;1.57;;
73793;SDS011;62123;52.518;10.528;2022-11-02T06:19:28;8.40;;;1.50;;
73793;SDS011;62123;52.518;10.528;2022-11-02T06:21:53;11.47;;;1.20;;
73793;SDS011;62123;52.518;10.528;2022-11-02T06:24:18;8.07;;;1.73;;
73793;SDS011;62123;52.518;10.528;2022-11-02T06:26:44;6.90;;;1.47;;
73793;SDS011;62123;52.518;10.528;2022-11-02T06:29:11;6.20;;;2.00;;
73793;SDS011;62123;52.518;10.528;2022-11-02T06:31:36;10.00;;;1.70;;
73793;SDS011;62123;52.518;10.528;2022-11-02T06:34:02;9.07;;;1.33;;
73793;SDS011;62123;52.518;10.528;2022-11-02T06:36:28;5.97;;;1.23;;
73793;SDS011;62123;52.518;10.528;2022-11-02T06:38:53;6.35;;;1.30;;
73793;SDS011;62123;52.518;10.528;2022-11-02T06:41:19;7.60;;;1.53;;
73793;SDS011;62123;52.518;10.528;2022-11-02T06:43:44;6.67;;;1.47;;
73793;SDS011;62123;52.518;10.528;2022-11-02T06:46:09;7.70;;;1.67;;
73793;SDS011;62123;52.518;10.528;2022-11-02T06:48:35;6.37;;;1.40;;
73793;SDS011;62123;52.518;10.528;2022-11-02T06:51:01;6.60;;;1.40;;
73793;SDS011;62123;52.518;10.528;2022-11-02T06:53:27;5.32;;;1.35;;
73793;SDS011;62123;52.518;10.528;2022-11-02T06:55:53;4.20;;;1.00;;
73793;SDS011;62123;52.518;10.528;2022-11-02T06:58:20;4.70;;;0.88;;
73793;SDS011;62123;52.518;10.528;2022-11-02T07:00:47;6.85;;;1.30;;
73793;SDS011;62123;52.518;10.528;2022-11-02T07:03:12;5.83;;;1.10;;
73793;SDS011;62123;52.518;10.528;2022-11-02T07:05:38;7.68;;;1.15;;
73793;SDS011;62123;52.518;10.528;2022-11-02T07:08:04;11.03;;;1.30;;
73793;SDS011;62123;52.518;10.528;2022-11-02T07:10:29;9.30;;;1.42;;
73793;SDS011;62123;52.518;10.528;2022-11-02T07:12:55;9.77;;;1.37;;
73793;SDS011;62123;52.518;10.528;2022-11-02T07:15:22;8.73;;;1.33;;
73793;SDS011;62123;52.518;10.528;2022-11-02T07:17:48;7.03;;;1.40;;
73793;SDS011;62123;52.518;10.528;2022-11-02T07:20:14;8.50;;;1.77;;
73793;SDS011;62123;52.518;10.528;2022-11-02T07:22:40;6.72;;;1.25;;
73793;SDS011;62123;52.518;10.528;2022-11-02T07:25:05;7.20;;;1.10;;
73793;SDS011;62123;52.518;10.528;2022-11-02T07:27:36;9.27;;;1.20;;
73793;SDS011;62123;52.518;10.528;2022-11-02T07:30:03;5.55;;;0.98;;
73793;SDS011;62123;52.518;10.528;2022-11-02T07:32:29;6.13;;;1.20;;
73793;SDS011;62123;52.518;10.528;2022-11-02T07:34:54;6.68;;;1.30;;
73793;SDS011;62123;52.518;10.528;2022-11-02T07:37:20;9.00;;;1.53;;
73793;SDS011;62123;52.518;10.528;2022-11-02T07:39:45;8.23;;;1.73;;
73793;SDS011;62123;52.518;10.528;2022-11-02T07:42:11;9.20;;;1.00;;
73793;SDS011;62123;52.518;10.528;2022-11-02T07:44:39;6.27;;;1.47;;
73793;SDS011;62123;52.518;10.528;2022-11-02T07:47:05;9.13;;;1.30;;
73793;SDS011;62123;52.518;10.528;2022-11-02T07:49:30;5.50;;;0.73;;
73793;SDS011;62123;52.518;10.528;2022-11-02T07:51:56;6.87;;;1.33;;
73793;SDS011;62123;52.518;10.528;2022-11-02T07:54:21;8.95;;;1.33;;
73793;SDS011;62123;52.518;10.528;2022-11-02T07:56:47;6.70;;;1.30;;
73793;SDS011;62123;52.518;10.528;2022-11-02T07:59:12;4.50;;;0.87;;
73793;SDS011;62123;52.518;10.528;2022-11-02T08:01:38;9.03;;;1.30;;
73793;SDS011;62123;52.518;10.528;2022-11-02T08:04:03;3.83;;;1.30;;
73793;SDS011;62123;52.518;10.528;2022-11-02T08:06:29;4.10;;;1.10;;
73793;SDS011;62123;52.518;10.528;2022-11-02T08:08:54;6.70;;;1.10;;
73793;SDS011;62123;52.518;10.528;2022-11-02T08:11:20;5.43;;;1.50;;
73793;SDS011;62123;52.518;10.528;2022-11-02T08:13:46;5.83;;;1.20;;
73793;SDS011;62123;52.518;10.528;2022-11-02T08:16:11;6.20;;;1.30;;
73793;SDS011;62123;52.518;10.528;2022-11-02T08:18:37;8.75;;;0.90;;
73793;SDS011;62123;52.518;10.528;2022-11-02T08:21:02;8.53;;;1.70;;
73793;SDS011;62123;52.518;10.528;2022-11-02T08:23:28;6.72;;;1.00;;
73793;SDS011;62123;52.518;10.528;2022-11-02T08:25:54;7.53;;;1.50;;
73793;SDS011;62123;52.518;10.528;2022-11-02T08:28:26;5.75;;;1.05;;
73793;SDS011;62123;52.518;10.528;2022-11-02T08:30:56;5.77;;;0.97;;
73793;SDS011;62123;52.518;10.528;2022-11-02T08:33:22;5.65;;;1.00;;
73793;SDS011;62123;52.518;10.528;2022-11-02T08:35:47;9.50;;;1.17;;
73793;SDS011;62123;52.518;10.528;2022-11-02T08:38:13;7.20;;;1.15;;
73793;SDS011;62123;52.518;10.528;2022-11-02T08:40:39;7.20;;;1.23;;
73793;SDS011;62123;52.518;10.528;2022-11-02T08:43:09;7.40;;;1.10;;
73793;SDS011;62123;52.518;10.528;2022-11-02T08:45:37;6.40;;;1.20;;
73793;SDS011;62123;52.518;10.528;2022-11-02T08:48:04;6.13;;;1.38;;
73793;SDS011;62123;52.518;10.528;2022-11-02T08:50:30;4.38;;;1.30;;
73793;SDS011;62123;52.518;10.528;2022-11-02T08:52:56;6.40;;;1.30;;
73793;SDS011;62123;52.518;10.528;2022-11-02T08:55:21;5.93;;;1.40;;
73793;SDS011;62123;52.518;10.528;2022-11-02T08:57:50;7.97;;;1.08;;
73793;SDS011;62123;52.518;10.528;2022-11-02T09:00:18;5.78;;;1.13;;
73793;SDS011;62123;52.518;10.528;2022-11-02T09:02:56;3.87;;;0.90;;
73793;SDS011;62123;52.518;10.528;2022-11-02T09:05:33;5.63;;;1.33;;
73793;SDS011;62123;52.518;10.528;2022-11-02T09:08:08;6.80;;;0.85;;
73793;SDS011;62123;52.518;10.528;2022-11-02T09:10:36;4.50;;;1.13;;
73793;SDS011;62123;52.518;10.528;2022-11-02T09:13:02;5.07;;;1.30;;
73793;SDS011;62123;52.518;10.528;2022-11-02T09:15:29;4.72;;;1.20;;
73793;SDS011;62123;52.518;10.528;2022-11-02T09:17:55;4.67;;;1.10;;
73793;SDS011;62123;52.518;10.528;2022-11-02T09:20:21;4.78;;;1.40;;
73793;SDS011;62123;52.518;10.528;2022-11-02T09:22:46;6.30;;;1.07;;
73793;SDS011;62123;52.518;10.528;2022-11-02T09:25:12;4.40;;;1.20;;
73793;SDS011;62123;52.518;10.528;2022-11-02T09:27:39;4.40;;;0.82;;
73793;SDS011;62123;52.518;10.528;2022-11-02T09:30:05;4.77;;;1.10;;
73793;SDS011;62123;52.518;10.528;2022-11-02T09:32:31;5.32;;;1.30;;
73793;SDS011;62123;52.518;10.528;2022-11-02T09:35:05;4.75;;;1.30;;
73793;SDS011;62123;52.518;10.528;2022-11-02T09:37:33;4.18;;;1.08;;
73793;SDS011;62123;52.518;10.528;2022-11-02T09:39:59;3.40;;;1.30;;
73793;SDS011;62123;52.518;10.528;2022-11-02T09:42:27;5.05;;;0.95;;
73793;SDS011;62123;52.518;10.528;2022-11-02T09:45:04;6.90;;;1.60;;
73793;SDS011;62123;52.518;10.528;2022-11-02T09:47:33;3.73;;;0.87;;
73793;SDS011;62123;52.518;10.528;2022-11-02T09:50:22;3.75;;;1.13;;
73793;SDS011;62123;52.518;10.528;2022-11-02T09:52:51;7.95;;;1.80;;
73793;SDS011;62123;52.518;10.528;2022-11-02T09:55:21;4.60;;;1.30;;
73793;SDS011;62123;52.518;10.528;2022-11-02T09:57:52;4.90;;;1.13;;
73793;SDS011;62123;52.518;10.528;2022-11-02T10:00:24;4.05;;;1.00;;
73793;SDS011;62123;52.518;10.528;2022-11-02T10:05:42;4.43;;;1.00;;
73793;SDS011;62123;52.518;10.528;2022-11-02T10:13:41;4.73;;;1.03;;
73793;SDS011;62123;52.518;10.528;2022-11-02T10:16:15;3.90;;;1.05;;
73793;SDS011;62123;52.518;10.528;2022-11-02T10:18:56;3.97;;;0.88;;
73793;SDS011;62123;52.518;10.528;2022-11-02T10:21:35;3.93;;;0.90;;
73793;SDS011;62123;52.518;10.528;2022-11-02T10:24:10;3.60;;;1.17;;
73793;SDS011;62123;52.518;10.528;2022-11-02T10:26:40;4.40;;;1.00;;
73793;SDS011;62123;52.518;10.528;2022-11-02T10:32:08;4.07;;;1.30;;
73793;SDS011;62123;52.518;10.528;2022-11-02T10:34:35;4.00;;;1.05;;
73793;SDS011;62123;52.518;10.528;2022-11-02T10:42:35;5.07;;;1.00;;
73793;SDS011;62123;52.518;10.528;2022-11-02T10:53:42;3.87;;;0.93;;
73793;SDS011;62123;52.518;10.528;2022-11-02T10:58:48;4.05;;;1.25;;
73793;SDS011;62123;52.518;10.528;2022-11-02T11:01:14;6.40;;;1.47;;
73793;SDS011;62123;52.518;10.528;2022-11-02T11:03:51;5.30;;;1.25;;
73793;SDS011;62123;52.518;10.528;2022-11-02T11:06:20;3.97;;;0.85;;
73793;SDS011;62123;52.518;10.528;2022-11-02T11:08:47;3.07;;;1.20;;
73793;SDS011;62123;52.518;10.528;2022-11-02T11:11:36;4.60;;;1.00;;
73793;SDS011;62123;52.518;10.528;2022-11-02T11:14:03;4.65;;;1.23;;
73793;SDS011;62123;52.518;10.528;2022-11-02T11:16:35;5.78;;;1.13;;
73793;SDS011;62123;52.518;10.528;2022-11-02T11:19:17;6.60;;;0.93;;
73793;SDS011;62123;52.518;10.528;2022-11-02T11:22:00;4.40;;;1.10;;
73793;SDS011;62123;52.518;10.528;2022-11-02T11:29:37;5.57;;;1.03;;
73793;SDS011;62123;52.518;10.528;2022-11-02T11:32:06;5.15;;;1.25;;
73793;SDS011;62123;52.518;10.528;2022-11-02T11:34:41;4.40;;;1.17;;
73793;SDS011;62123;52.518;10.528;2022-11-02T11:37:09;6.30;;;1.33;;
73793;SDS011;62123;52.518;10.528;2022-11-02T11:39:36;3.90;;;0.90;;
73793;SDS011;62123;52.518;10.528;2022-11-02T11:42:12;3.33;;;1.05;;
73793;SDS011;62123;52.518;10.528;2022-11-02T11:44:45;3.45;;;0.85;;
73793;SDS011;62123;52.518;10.528;2022-11-02T11:47:15;4.63;;;0.83;;
73793;SDS011;62123;52.518;10.528;2022-11-02T11:49:50;4.88;;;0.95;;
73793;SDS011;62123;52.518;10.528;2022-11-02T11:52:18;4.15;;;1.17;;
73793;SDS011;62123;52.518;10.528;2022-11-02T11:54:56;2.90;;;0.80;;
73793;SDS011;62123;52.518;10.528;2022-11-02T11:57:27;2.85;;;0.93;;
73793;SDS011;62123;52.518;10.528;2022-11-02T11:59:55;5.05;;;0.70;;
73793;SDS011;62123;52.518;10.528;2022-11-02T12:02:25;3.77;;;1.07;;
73793;SDS011;62123;52.518;10.528;2022-11-02T12:04:51;4.18;;;0.80;;
73793;SDS011;62123;52.518;10.528;2022-11-02T12:07:33;4.35;;;0.98;;
73793;SDS011;62123;52.518;10.528;2022-11-02T12:18:29;5.53;;;0.90;;
73793;SDS011;62123;52.518;10.528;2022-11-02T12:30:01;3.95;;;1.17;;
73793;SDS011;62123;52.518;10.528;2022-11-02T12:41:29;3.53;;;0.80;;
73793;SDS011;62123;52.518;10.528;2022-11-02T12:44:08;4.07;;;0.90;;
73793;SDS011;62123;52.518;10.528;2022-11-02T12:52:45;5.40;;;0.80;;
73793;SDS011;62123;52.518;10.528;2022-11-02T12:55:18;2.63;;;0.47;;
73793;SDS011;62123;52.518;10.528;2022-11-02T12:57:47;3.40;;;1.10;;
73793;SDS011;62123;52.518;10.528;2022-11-02T13:00:19;4.37;;;0.77;;
73793;SDS011;62123;52.518;10.528;2022-11-02T13:03:04;3.53;;;0.65;;
73793;SDS011;62123;52.518;10.528;2022-11-02T13:05:39;5.75;;;1.05;;
73793;SDS011;62123;52.518;10.528;2022-11-02T13:10:44;5.25;;;0.85;;
73793;SDS011;62123;52.518;10.528;2022-11-02T13:13:12;4.82;;;1.08;;
73793;SDS011;62123;52.518;10.528;2022-11-02T13:15:40;4.18;;;1.02;;
73793;SDS011;62123;52.518;10.528;2022-11-02T13:18:50;5.10;;;1.00;;
73793;SDS011;62123;52.518;10.528;2022-11-02T13:21:04;2.83;;;0.93;;
73793;SDS011;62123;52.518;10.528;2022-11-02T13:26:01;9.17;;;1.00;;
73793;SDS011;62123;52.518;10.528;2022-11-02T13:31:03;4.22;;;0.90;;
73793;SDS011;62123;52.518;10.528;2022-11-02T13:36:27;3.10;;;0.70;;
73793;SDS011;62123;52.518;10.528;2022-11-02T13:39:11;3.10;;;0.77;;
73793;SDS011;62123;52.518;10.528;2022-11-02T13:47:07;3.92;;;1.20;;
73793;SDS011;62123;52.518;10.528;2022-11-02T13:49:50;5.22;;;1.15;;
73793;SDS011;62123;52.518;10.528;2022-11-02T13:55:00;4.53;;;0.77;;
73793;SDS011;62123;52.518;10.528;2022-11-02T13:57:31;3.80;;;0.80;;
73793;SDS011;62123;52.518;10.528;2022-11-02T14:00:05;4.77;;;0.60;;
73793;SDS011;62123;52.518;10.528;2022-11-02T14:02:33;3.30;;;1.15;;
73793;SDS011;62123;52.518;10.528;2022-11-02T14:05:00;3.80;;;0.95;;
73793;SDS011;62123;52.518;10.528;2022-11-02T14:07:33;4.63;;;1.10;;
73793;SDS011;62123;52.518;10.528;2022-11-02T14:10:06;3.97;;;1.10;;
73793;SDS011;62123;52.518;10.528;2022-11-02T14:12:44;5.93;;;1.02;;
73793;SDS011;62123;52.518;10.528;2022-11-02T14:25:50;4.57;;;0.95;;
73793;SDS011;62123;52.518;10.528;2022-11-02T14:30:46;3.27;;;0.77;;
73793;SDS011;62123;52.518;10.528;2022-11-02T14:38:50;4.90;;;1.10;;
73793;SDS011;62123;52.518;10.528;2022-11-02T14:49:32;4.60;;;1.30;;
73793;SDS011;62123;52.518;10.528;2022-11-02T14:54:51;3.50;;;0.98;;
73793;SDS011;62123;52.518;10.528;2022-11-02T15:00:19;3.22;;;1.02;;
73793;SDS011;62123;52.518;10.528;2022-11-02T15:02:47;3.33;;;0.82;;
73793;SDS011;62123;52.518;10.528;2022-11-02T15:08:00;3.10;;;1.00;;
73793;SDS011;62123;52.518;10.528;2022-11-02T15:15:42;3.80;;;0.93;;
73793;SDS011;62123;52.518;10.528;2022-11-02T15:24:23;2.70;;;0.80;;
73793;SDS011;62123;52.518;10.528;2022-11-02T15:26:54;3.70;;;0.98;;
73793;SDS011;62123;52.518;10.528;2022-11-02T15:31:54;3.07;;;0.97;;
73793;SDS011;62123;52.518;10.528;2022-11-02T15:34:23;3.63;;;0.98;;
73793;SDS011;62123;52.518;10.528;2022-11-02T15:36:56;2.80;;;0.90;;
73793;SDS011;62123;52.518;10.528;2022-11-02T15:39:23;2.55;;;0.68;;
73793;SDS011;62123;52.518;10.528;2022-11-02T15:44:35;2.70;;;1.00;;
73793;SDS011;62123;52.518;10.528;2022-11-02T16:04:04;3.45;;;1.40;;
73793;SDS011;62123;52.518;10.528;2022-11-02T16:06:33;3.87;;;1.10;;
73793;SDS011;62123;52.518;10.528;2022-11-02T16:12:01;2.25;;;0.88;;
73793;SDS011;62123;52.518;10.528;2022-11-02T16:14:32;3.63;;;0.70;;
73793;SDS011;62123;52.518;10.528;2022-11-02T16:17:26;3.75;;;0.70;;
73793;SDS011;62123;52.518;10.528;2022-11-02T16:20:10;3.03;;;0.73;;
73793;SDS011;62123;52.518;10.528;2022-11-02T16:25:29;2.97;;;1.10;;
73793;SDS011;62123;52.518;10.528;2022-11-02T16:27:56;2.60;;;0.98;;
73793;SDS011;62123;52.518;10.528;2022-11-02T16:30:23;2.75;;;1.02;;
73793;SDS011;62123;52.518;10.528;2022-11-02T16:32:50;2.17;;;0.90;;
73793;SDS011;62123;52.518;10.528;2022-11-02T16:35:18;4.80;;;1.33;;
73793;SDS011;62123;52.518;10.528;2022-11-02T16:37:46;3.87;;;1.00;;
73793;SDS011;62123;52.518;10.528;2022-11-02T16:40:17;2.10;;;0.60;;
73793;SDS011;62123;52.518;10.528;2022-11-02T16:42:44;3.17;;;0.93;;
73793;SDS011;62123;52.518;10.528;2022-11-02T16:45:27;3.10;;;0.80;;
73793;SDS011;62123;52.518;10.528;2022-11-02T16:47:56;3.37;;;1.10;;
73793;SDS011;62123;52.518;10.528;2022-11-02T16:50:22;4.63;;;1.00;;
73793;SDS011;62123;52.518;10.528;2022-11-02T16:52:51;2.90;;;1.10;;
73793;SDS011;62123;52.518;10.528;2022-11-02T16:58:04;3.13;;;0.93;;
73793;SDS011;62123;52.518;10.528;2022-11-02T17:00:31;3.40;;;0.90;;
73793;SDS011;62123;52.518;10.528;2022-11-02T17:02:57;2.72;;;1.17;;
73793;SDS011;62123;52.518;10.528;2022-11-02T17:05:31;2.50;;;0.88;;
73793;SDS011;62123;52.518;10.528;2022-11-02T17:08:01;3.23;;;1.00;;
73793;SDS011;62123;52.518;10.528;2022-11-02T17:10:29;4.07;;;1.75;;
73793;SDS011;62123;52.518;10.528;2022-11-02T17:12:56;6.97;;;1.60;;
73793;SDS011;62123;52.518;10.528;2022-11-02T17:15:23;8.65;;;1.73;;
73793;SDS011;62123;52.518;10.528;2022-11-02T17:17:56;4.72;;;2.03;;
73793;SDS011;62123;52.518;10.528;2022-11-02T17:20:36;5.30;;;1.70;;
73793;SDS011;62123;52.518;10.528;2022-11-02T17:23:48;6.65;;;2.00;;
73793;SDS011;62123;52.518;10.528;2022-11-02T17:26:52;5.80;;;1.85;;
73793;SDS011;62123;52.518;10.528;2022-11-02T17:33:55;6.10;;;1.85;;
73793;SDS011;62123;52.518;10.528;2022-11-02T17:36:22;7.63;;;2.10;;
73793;SDS011;62123;52.518;10.528;2022-11-02T17:38:50;6.07;;;2.00;;
73793;SDS011;62123;52.518;10.528;2022-11-02T17:41:16;7.85;;;2.63;;
73793;SDS011;62123;52.518;10.528;2022-11-02T17:44:21;6.00;;;2.42;;
73793;SDS011;62123;52.518;10.528;2022-11-02T17:46:46;5.33;;;2.43;;
73793;SDS011;62123;52.518;10.528;2022-11-02T17:49:12;9.57;;;2.33;;
73793;SDS011;62123;52.518;10.528;2022-11-02T17:51:38;10.07;;;2.40;;
73793;SDS011;62123;52.518;10.528;2022-11-02T17:54:04;7.22;;;2.35;;
73793;SDS011;62123;52.518;10.528;2022-11-02T17:56:30;7.80;;;2.60;;
73793;SDS011;62123;52.518;10.528;2022-11-02T17:58:55;6.30;;;2.50;;
73793;SDS011;62123;52.518;10.528;2022-11-02T18:01:21;11.52;;;2.78;;
73793;SDS011;62123;52.518;10.528;2022-11-02T18:03:46;8.57;;;2.70;;
73793;SDS011;62123;52.518;10.528;2022-11-02T18:06:11;8.80;;;2.93;;
73793;SDS011;62123;52.518;10.528;2022-11-02T18:08:37;6.20;;;2.67;;
73793;SDS011;62123;52.518;10.528;2022-11-02T18:11:21;6.90;;;2.93;;